Time;durP1;ratioP1;P1;durP2;ratioP2;P2;SDS_P1;SDS_P2;PMS_P1;PMS_P2;Temp;Humidity;BMP_temperature;BMP_pressure;BME280_temperature;BME280_humidity;BME280_pressure;Samples;Min_cycle;Max_cycle;Signal;HPM_P1;HPM_P2
2021/12/08 00:00:32;;;;;;;;;0.00;0.00;;;;;7.09;67.07;99212.34;5073171;27;45352;-79
2021/12/08 00:02:59;;;;;;;;;1.00;0.00;;;;;7.30;67.13;99253.72;5081688;27;45448;-80
2021/12/08 00:05:26;;;;;;;;;0.00;0.00;;;;;7.00;66.64;99209.75;5080471;27;45653;-79
2021/12/08 00:07:52;;;;;;;;;0.00;0.00;;;;;7.14;67.46;99234.75;5073464;27;45364;-79
2021/12/08 00:13:05;;;;;;;;;0.00;0.00;;;;;7.21;67.23;99268.41;5100240;27;45431;-79
2021/12/08 00:15:33;;;;;;;;;0.00;0.00;;;;;7.27;67.35;99269.25;5089836;27;46153;-79
2021/12/08 00:17:59;;;;;;;;;0.00;0.00;;;;;7.25;67.13;99256.28;5099484;27;45437;-79
2021/12/08 00:20:27;;;;;;;;;0.00;0.00;;;;;7.19;67.22;99248.53;5094756;27;45330;-79
2021/12/08 00:22:52;;;;;;;;;2.00;1.00;;;;;7.07;67.41;99221.81;5092874;27;45347;-79
2021/12/08 00:25:18;;;;;;;;;0.00;0.00;;;;;7.09;67.07;99245.97;5103267;27;45515;-80
2021/12/08 00:27:43;;;;;;;;;0.00;0.00;;;;;7.15;67.46;99259.75;5086613;28;45350;-80
2021/12/08 00:30:09;;;;;;;;;0.00;0.00;;;;;7.20;67.66;99253.72;5092878;27;45662;-80
2021/12/08 00:32:37;;;;;;;;;0.00;0.00;;;;;6.93;67.57;99214.09;5103491;27;45424;-80
2021/12/08 00:35:06;;;;;;;;;0.00;0.00;;;;;6.56;67.38;99141.69;5089106;27;45656;-79
2021/12/08 00:37:32;;;;;;;;;0.00;0.00;;;;;6.96;67.46;99202.88;5100907;27;45314;-79
2021/12/08 00:39:58;;;;;;;;;0.00;0.00;;;;;7.24;67.21;99249.41;5092207;27;45399;-80
2021/12/08 00:42:23;;;;;;;;;0.00;0.00;;;;;6.96;67.32;99226.16;5098454;27;45430;-79
2021/12/08 00:44:49;;;;;;;;;0.00;0.00;;;;;7.20;67.16;99266.66;5100771;27;45464;-79
2021/12/08 00:47:15;;;;;;;;;0.00;0.00;;;;;7.18;66.65;99273.56;5086221;27;45489;-79
2021/12/08 00:49:41;;;;;;;;;0.00;0.00;;;;;7.14;67.08;99279.59;5087780;27;45420;-81
2021/12/08 00:52:07;;;;;;;;;0.00;0.00;;;;;7.00;67.33;99256.31;5098123;27;45305;-80
2021/12/08 00:54:33;;;;;;;;;0.00;0.00;;;;;7.09;67.11;99277.03;5095351;27;46425;-79
2021/12/08 00:56:59;;;;;;;;;0.00;0.00;;;;;6.76;67.35;99239.94;5089025;27;45336;-79
2021/12/08 00:59:25;;;;;;;;;0.00;0.00;;;;;7.03;67.00;99294.28;5102811;27;45282;-79
2021/12/08 01:01:50;;;;;;;;;0.00;0.00;;;;;6.94;66.96;99280.47;5093500;27;45351;-79
2021/12/08 01:04:16;;;;;;;;;0.00;0.00;;;;;6.95;66.85;99278.75;5100230;27;45419;-79
2021/12/08 01:06:42;;;;;;;;;0.00;0.00;;;;;6.91;66.71;99270.13;5098689;27;45325;-78
2021/12/08 01:09:08;;;;;;;;;0.00;0.00;;;;;7.00;67.09;99286.50;5090469;27;45278;-79
2021/12/08 01:11:34;;;;;;;;;0.00;0.00;;;;;6.94;66.98;99277.03;5103722;27;45595;-80
2021/12/08 01:13:59;;;;;;;;;0.00;0.00;;;;;6.89;67.10;99278.75;5094564;27;46134;-79
2021/12/08 01:16:25;;;;;;;;;0.00;0.00;;;;;6.78;67.06;99256.34;5107087;27;45400;-80
2021/12/08 01:18:51;;;;;;;;;0.00;0.00;;;;;6.65;67.13;99257.19;5093030;27;45388;-80
2021/12/08 01:21:17;;;;;;;;;0.00;0.00;;;;;6.48;66.58;99232.16;5104285;27;45451;-80
2021/12/08 01:23:47;;;;;;;;;0.00;0.00;;;;;6.74;66.94;99284.78;5091862;27;46192;-80
2021/12/08 01:26:16;;;;;;;;;0.00;0.00;;;;;6.61;67.59;99276.16;5098408;27;45335;-80
2021/12/08 01:28:41;;;;;;;;;0.00;0.00;;;;;6.52;67.15;99241.66;5099716;27;45451;-79
2021/12/08 01:31:07;;;;;;;;;0.00;0.00;;;;;6.69;67.03;99257.19;5107844;27;45274;-80
2021/12/08 01:33:35;;;;;;;;;1.00;0.00;;;;;6.52;66.81;99227.88;5092090;27;46116;-80
2021/12/08 01:36:02;;;;;;;;;0.00;0.00;;;;;6.66;67.28;99240.81;5101910;27;45358;-81
2021/12/08 01:38:27;;;;;;;;;0.00;0.00;;;;;6.46;66.96;99208.03;5102027;27;45500;-80
2021/12/08 01:40:53;;;;;;;;;0.00;0.00;;;;;6.25;67.01;99178.72;5099623;27;45590;-79
2021/12/08 01:43:40;;;;;;;;;0.00;0.00;;;;;6.55;66.94;99254.59;5091415;28;45701;-79
2021/12/08 01:46:09;;;;;;;;;0.00;0.00;;;;;6.56;66.96;99260.63;5097349;27;45338;-79
2021/12/08 01:48:38;;;;;;;;;0.00;0.00;;;;;6.36;66.75;99233.00;5088835;28;45275;-79
2021/12/08 01:51:14;;;;;;;;;0.00;0.00;;;;;6.47;66.97;99259.72;5086710;28;45403;-79
2021/12/08 01:53:49;;;;;;;;;0.00;0.00;;;;;6.38;67.27;99271.78;5087773;27;46108;-79
2021/12/08 01:56:17;;;;;;;;;0.00;0.00;;;;;6.12;67.28;99246.75;5101350;27;44758;-80
2021/12/08 01:58:43;;;;;;;;;0.00;0.00;;;;;6.32;67.27;99281.28;5100664;27;45340;-80
2021/12/08 02:01:11;;;;;;;;;2.00;0.00;;;;;6.51;67.21;99309.75;5092747;27;45213;-79
2021/12/08 02:03:39;;;;;;;;;0.00;0.00;;;;;6.51;67.39;99307.16;5109407;27;46354;-79
2021/12/08 02:06:07;;;;;;;;;0.00;0.00;;;;;6.54;67.22;99309.75;5101150;27;45396;-79
2021/12/08 02:08:33;;;;;;;;;0.00;0.00;;;;;6.46;67.41;99299.38;5099710;27;45375;-79
2021/12/08 02:11:00;;;;;;;;;0.00;0.00;;;;;6.53;67.30;99305.44;5094694;27;45367;-79
2021/12/08 02:13:27;;;;;;;;;0.00;0.00;;;;;6.44;67.32;99300.25;5103664;27;46332;-79
2021/12/08 02:15:53;;;;;;;;;0.00;0.00;;;;;6.35;67.28;99285.56;5093677;27;45429;-79
2021/12/08 02:18:19;;;;;;;;;0.00;0.00;;;;;6.50;67.57;99322.66;5108520;27;45352;-79
2021/12/08 02:20:47;;;;;;;;;0.00;0.00;;;;;6.43;67.39;99320.06;5107763;27;46007;-79
2021/12/08 02:23:13;;;;;;;;;0.00;0.00;;;;;6.25;67.33;99307.94;5108251;27;45295;-78
2021/12/08 02:25:39;;;;;;;;;0.00;0.00;;;;;6.25;67.68;99304.50;5070178;27;45288;-78
2021/12/08 02:28:08;;;;;;;;;0.00;0.00;;;;;6.37;67.55;99325.19;5092064;27;45457;-79
2021/12/08 02:47:07;;;;;;;;;0.00;0.00;;;;;6.13;67.82;99294.97;5101627;27;45352;-79
2021/12/08 02:49:33;;;;;;;;;0.00;0.00;;;;;6.02;68.26;99276.81;5089237;27;45235;-79
2021/12/08 02:52:01;;;;;;;;;2.25;1.00;;;;;6.26;68.21;99329.47;5092070;27;45377;-79
2021/12/08 02:54:34;;;;;;;;;0.00;0.00;;;;;5.98;68.15;99288.00;5088041;27;45291;-79
2021/12/08 02:56:59;;;;;;;;;0.00;0.00;;;;;6.07;68.19;99312.19;5086986;28;45371;-79
2021/12/08 02:59:24;;;;;;;;;0.00;0.00;;;;;6.21;68.40;99344.97;5105529;27;45274;-79
2021/12/08 03:01:50;;;;;;;;;0.00;0.00;;;;;6.20;68.59;99346.69;5088971;28;45141;-79
2021/12/08 03:04:15;;;;;;;;;0.00;0.00;;;;;5.78;68.08;99281.88;5099541;27;45386;-79
2021/12/08 03:06:41;;;;;;;;;0.00;0.00;;;;;6.00;67.91;99292.31;5096912;27;45361;-79
2021/12/08 03:09:07;;;;;;;;;0.00;0.00;;;;;6.13;68.16;99313.06;5091254;27;45840;-79
2021/12/08 03:11:34;;;;;;;;;0.00;0.00;;;;;6.18;68.17;99326.84;5093890;27;45553;-80
2021/12/08 03:14:03;;;;;;;;;0.00;0.00;;;;;6.05;67.92;99311.31;5114086;27;45346;-79
2021/12/08 03:16:28;;;;;;;;;0.00;0.00;;;;;6.19;67.78;99326.88;5113797;27;45775;-79
2021/12/08 03:18:54;;;;;;;;;0.75;0.00;;;;;6.18;67.84;99327.72;5099793;27;45340;-79
2021/12/08 03:21:27;;;;;;;;;0.00;0.00;;;;;6.19;67.81;99326.03;5109578;27;45598;-79
2021/12/08 03:26:34;;;;;;;;;0.00;0.00;;;;;6.05;67.76;99298.41;5101803;27;45302;-79
2021/12/08 03:29:06;;;;;;;;;0.00;0.00;;;;;6.02;67.88;99305.22;5092128;28;45425;-79
2021/12/08 03:31:38;;;;;;;;;0.00;0.00;;;;;6.05;67.46;99310.44;5110736;27;45243;-79
2021/12/08 03:34:04;;;;;;;;;0.00;0.00;;;;;5.96;67.79;99290.56;5100486;27;46881;-79
2021/12/08 03:36:29;;;;;;;;;0.00;0.00;;;;;5.72;67.95;99250.03;5098025;27;45394;-79
2021/12/08 03:38:55;;;;;;;;;0.00;0.00;;;;;5.83;67.67;99262.09;5100885;27;45252;-79
2021/12/08 03:41:20;;;;;;;;;0.00;0.00;;;;;5.77;67.51;99248.31;5090914;27;45374;-79
2021/12/08 03:43:46;;;;;;;;;0.00;0.00;;;;;5.77;67.36;99251.75;5102892;27;47066;-79
2021/12/08 03:46:13;;;;;;;;;0.00;0.00;;;;;5.99;67.79;99289.72;5098388;27;45364;-78
2021/12/08 03:48:47;;;;;;;;;0.75;0.00;;;;;6.11;67.78;99305.31;5109527;27;45401;-79
2021/12/08 03:51:15;;;;;;;;;0.00;0.00;;;;;5.86;67.92;99265.56;5092500;27;45480;-79
2021/12/08 03:53:41;;;;;;;;;0.00;0.00;;;;;5.92;67.40;99288.84;5088537;27;47093;-79
2021/12/08 03:56:09;;;;;;;;;0.00;0.00;;;;;6.05;67.65;99295.81;5102328;27;45501;-78
2021/12/08 03:58:35;;;;;;;;;0.00;0.00;;;;;6.07;67.77;99303.59;5089486;27;45396;-79
2021/12/08 04:01:02;;;;;;;;;0.00;0.00;;;;;6.01;67.59;99301.81;5101980;27;45362;-79
2021/12/08 04:03:31;;;;;;;;;1.00;0.00;;;;;6.03;67.70;99302.66;5091272;27;45402;-79
2021/12/08 04:05:59;;;;;;;;;0.00;0.00;;;;;6.03;67.45;99301.81;5102770;27;45511;-79
2021/12/08 04:08:32;;;;;;;;;0.00;0.00;;;;;5.84;67.71;99265.56;5095759;27;45457;-79
2021/12/08 04:11:03;;;;;;;;;0.00;0.00;;;;;5.95;67.47;99294.03;5091903;27;45310;-79
2021/12/08 04:13:36;;;;;;;;;0.00;0.00;;;;;5.99;67.25;99297.47;5101805;27;46114;-79
2021/12/08 04:16:02;;;;;;;;;0.00;0.00;;;;;5.86;67.53;99275.91;5090533;27;45403;-79
2021/12/08 04:18:27;;;;;;;;;0.00;0.00;;;;;6.06;67.83;99299.25;5105845;27;45765;-79
2021/12/08 04:20:57;;;;;;;;;1.00;0.00;;;;;6.00;67.67;99288.88;5090271;27;45432;-78
2021/12/08 04:23:26;;;;;;;;;0.00;0.00;;;;;5.99;67.86;99294.88;5103558;27;46222;-79
2021/12/08 04:25:57;;;;;;;;;0.00;0.00;;;;;6.00;67.76;99304.38;5099959;27;45372;-79
2021/12/08 04:28:27;;;;;;;;;0.00;0.00;;;;;5.88;67.83;99271.59;5094557;27;45282;-79
2021/12/08 04:31:17;;;;;;;;;1.00;1.00;;;;;6.03;67.82;99310.41;5090677;27;45546;-79
2021/12/08 04:33:43;;;;;;;;;0.00;0.00;;;;;6.03;68.10;99315.56;5098603;27;45649;-79
2021/12/08 04:36:12;;;;;;;;;0.00;0.00;;;;;5.88;67.85;99282.78;5091781;27;46113;-79
2021/12/08 04:38:42;;;;;;;;;0.00;0.00;;;;;5.78;67.74;99262.94;5093389;27;44815;-79
2021/12/08 04:41:14;;;;;;;;;0.00;0.00;;;;;5.81;67.91;99276.75;5101140;27;45298;-79
2021/12/08 04:51:56;;;;;;;;;0.00;0.00;;;;;5.68;67.89;99273.25;5068293;28;45541;-80
2021/12/08 05:05:26;;;;;;;;;0.00;0.00;;;;;5.83;67.97;99310.31;5091342;27;45464;-80
2021/12/08 05:07:59;;;;;;;;;0.00;0.00;;;;;5.89;67.89;99328.44;5089020;27;45308;-80
2021/12/08 05:10:30;;;;;;;;;0.00;0.00;;;;;5.65;68.00;99298.16;5087190;27;45449;-81
2021/12/08 05:12:58;;;;;;;;;0.00;0.00;;;;;5.78;68.25;99323.22;5069228;28;45338;-81
2021/12/08 05:15:33;;;;;;;;;0.50;0.00;;;;;5.81;68.12;99327.53;5102289;27;45501;-80
2021/12/08 05:18:13;;;;;;;;;0.00;0.00;;;;;5.76;68.10;99319.75;5087491;28;45384;-80
2021/12/08 05:21:01;;;;;;;;;0.00;0.00;;;;;5.77;68.18;99331.81;5082977;27;45463;-80
2021/12/08 05:23:38;;;;;;;;;0.00;0.00;;;;;5.83;68.45;99329.25;5067511;28;45405;-78
2021/12/08 05:26:13;;;;;;;;;0.00;0.00;;;;;5.31;67.98;99252.38;5079764;27;46164;-79
2021/12/08 05:28:41;;;;;;;;;0.00;0.00;;;;;5.66;68.44;99315.38;5077606;28;45285;-79
2021/12/08 05:31:30;;;;;;;;;0.00;0.00;;;;;5.78;68.41;99328.38;5092409;27;45318;-78
2021/12/08 05:33:58;;;;;;;;;1.00;0.00;;;;;5.86;68.54;99343.91;5071977;27;45384;-79
2021/12/08 05:36:24;;;;;;;;;0.00;0.00;;;;;5.81;68.32;99335.25;5087062;27;45344;-79
2021/12/08 05:38:52;;;;;;;;;0.00;0.00;;;;;5.46;68.30;99287.75;5076835;28;45190;-79
2021/12/08 05:41:23;;;;;;;;;0.00;0.00;;;;;5.65;68.20;99317.13;5080862;27;45369;-79
2021/12/08 05:43:49;;;;;;;;;0.00;0.00;;;;;5.71;68.44;99324.03;5084966;27;45199;-79
2021/12/08 05:46:17;;;;;;;;;0.00;0.00;;;;;5.81;68.31;99335.25;5080975;27;46144;-78
2021/12/08 05:48:46;;;;;;;;;1.00;0.00;;;;;5.85;68.19;99349.91;5095077;27;45402;-79
2021/12/08 05:51:25;;;;;;;;;0.00;0.00;;;;;5.85;68.12;99337.00;5090803;27;45645;-79
2021/12/08 05:53:54;;;;;;;;;0.00;0.00;;;;;5.66;68.17;99315.38;5086019;27;45252;-79
2021/12/08 05:56:20;;;;;;;;;0.00;0.00;;;;;5.57;68.24;99309.31;5097465;27;45415;-79
2021/12/08 05:58:48;;;;;;;;;0.00;0.00;;;;;5.72;68.43;99332.66;5109163;27;45370;-80
2021/12/08 06:01:22;;;;;;;;;1.00;1.00;;;;;5.82;68.55;99342.19;5088110;27;45342;-79
2021/12/08 06:03:50;;;;;;;;;0.00;0.00;;;;;5.81;68.20;99343.00;5096155;27;45266;-78
2021/12/08 06:06:19;;;;;;;;;0.00;0.00;;;;;5.66;68.44;99307.63;5090409;27;45450;-79
2021/12/08 06:08:45;;;;;;;;;0.00;0.00;;;;;5.78;68.18;99330.09;5083386;27;45386;-77
2021/12/08 06:11:12;;;;;;;;;0.00;0.00;;;;;5.52;68.46;99300.69;5059867;28;45481;-78
2021/12/08 06:13:38;;;;;;;;;0.00;0.00;;;;;5.30;68.50;99272.16;5097086;27;45580;-79
2021/12/08 06:16:05;;;;;;;;;0.00;0.00;;;;;5.47;68.06;99297.22;5081803;27;48779;-78
2021/12/08 06:18:37;;;;;;;;;0.00;0.00;;;;;5.62;68.65;99319.69;5076465;27;45367;-79
2021/12/08 06:21:07;;;;;;;;;0.50;0.00;;;;;5.58;68.41;99325.69;5093083;27;45353;-83
2021/12/08 06:23:34;;;;;;;;;0.00;0.00;;;;;5.55;68.36;99323.91;5100445;27;45668;-81
2021/12/08 06:26:00;;;;;;;;;0.00;0.00;;;;;5.54;68.55;99321.31;5077091;27;45966;-83
2021/12/08 06:28:26;;;;;;;;;0.00;0.00;;;;;5.57;68.72;99334.25;5069786;27;45394;-82
2021/12/08 06:30:52;;;;;;;;;0.00;0.00;;;;;5.47;68.93;99323.03;5069882;27;45486;-82
2021/12/08 06:33:20;;;;;;;;;0.00;0.00;;;;;5.45;68.08;99315.25;5071441;27;45374;-79
2021/12/08 06:35:54;;;;;;;;;0.00;0.00;;;;;5.29;68.51;99303.97;5080845;27;47412;-82
2021/12/08 06:38:21;;;;;;;;;0.00;0.00;;;;;5.53;68.33;99346.31;5077234;27;45460;-81
2021/12/08 06:41:04;;;;;;;;;0.00;0.00;;;;;5.58;68.33;99352.34;5063438;28;45433;-82
2021/12/08 06:43:39;;;;;;;;;0.00;0.00;;;;;5.25;68.68;99306.53;5071503;27;45517;-81
2021/12/08 06:46:05;;;;;;;;;0.00;0.00;;;;;5.33;68.17;99338.44;5095233;27;45596;-82
2021/12/08 06:48:37;;;;;;;;;1.00;0.00;;;;;5.51;68.38;99360.91;5096296;27;45923;-82
2021/12/08 06:51:17;;;;;;;;;0.00;0.00;;;;;5.64;68.11;99379.06;5090013;27;45357;-82
2021/12/08 06:53:45;;;;;;;;;0.00;0.00;;;;;5.64;68.54;99358.41;5086290;27;45440;-81
2021/12/08 06:56:18;;;;;;;;;0.00;0.00;;;;;5.50;68.53;99350.56;5087238;27;45404;-82
2021/12/08 06:58:47;;;;;;;;;0.00;0.00;;;;;5.53;68.35;99345.44;5086840;27;45497;-82
2021/12/08 07:01:35;;;;;;;;;0.00;0.00;;;;;5.58;68.08;99359.25;5074271;27;45408;-83
2021/12/08 07:04:12;;;;;;;;;0.00;0.00;;;;;5.51;68.47;99352.31;5072637;27;45896;-82
2021/12/08 07:09:13;;;;;;;;;0.00;0.00;;;;;5.63;68.54;99362.72;5071520;27;44931;-82
2021/12/08 07:11:39;;;;;;;;;0.75;0.00;;;;;5.60;68.44;99356.69;5072594;28;45389;-82
2021/12/08 07:14:05;;;;;;;;;0.00;0.00;;;;;5.54;68.64;99349.72;5087816;27;45400;-82
2021/12/08 07:16:35;;;;;;;;;0.00;0.00;;;;;5.64;68.44;99377.34;5092264;27;47529;-80
2021/12/08 07:19:13;;;;;;;;;0.00;0.00;;;;;5.69;68.45;99387.69;5089730;27;45355;-83
2021/12/08 07:21:44;;;;;;;;;0.00;0.00;;;;;5.71;68.46;99401.50;5072763;27;45381;-80
2021/12/08 07:24:17;;;;;;;;;0.00;0.00;;;;;5.72;68.32;99392.03;5102423;27;45448;-81
2021/12/08 07:26:43;;;;;;;;;0.00;0.00;;;;;5.72;68.48;99402.38;5093269;27;47301;-81
2021/12/08 07:29:15;;;;;;;;;0.00;0.00;;;;;5.49;68.22;99365.22;5100546;27;45463;-82
2021/12/08 07:31:46;;;;;;;;;0.00;0.00;;;;;5.49;68.50;99352.31;5068194;27;45499;-81
2021/12/08 07:34:17;;;;;;;;;0.00;0.00;;;;;5.50;68.65;99378.97;5090756;27;45596;-80
2021/12/08 07:36:47;;;;;;;;;0.00;0.00;;;;;5.43;68.47;99375.47;5091480;27;46369;-81
2021/12/08 07:39:18;;;;;;;;;0.00;0.00;;;;;5.60;68.24;99404.00;5100544;27;45716;-81
2021/12/08 07:41:52;;;;;;;;;0.00;0.00;;;;;5.53;68.44;99397.94;5070777;27;45388;-81
2021/12/08 07:44:19;;;;;;;;;1.00;1.00;;;;;5.30;68.49;99366.78;5095320;27;45399;-83
2021/12/08 07:46:56;;;;;;;;;0.00;0.00;;;;;5.50;68.79;99397.91;5096079;27;46077;-81
2021/12/08 07:49:29;;;;;;;;;0.00;0.00;;;;;5.73;69.20;99432.50;5086701;27;45168;-82
2021/12/08 07:51:59;;;;;;;;;0.00;0.00;;;;;5.83;68.44;99445.47;5097108;27;45592;-81
2021/12/08 07:54:26;;;;;;;;;0.00;0.00;;;;;5.82;68.58;99432.56;5092903;27;45555;-81
2021/12/08 07:56:55;;;;;;;;;0.00;0.00;;;;;5.87;68.30;99448.09;5088037;27;46351;-81
2021/12/08 07:59:22;;;;;;;;;0.00;0.00;;;;;5.67;68.36;99405.75;5098471;27;45335;-81
2021/12/08 08:01:53;;;;;;;;;0.00;0.00;;;;;5.67;68.55;99418.69;5087300;27;45434;-81
2021/12/08 08:04:21;;;;;;;;;0.00;0.00;;;;;5.73;68.16;99424.75;5092946;27;45437;-81
2021/12/08 08:06:53;;;;;;;;;0.00;0.00;;;;;5.53;68.07;99386.72;5095304;27;46180;-84
2021/12/08 08:09:23;;;;;;;;;0.00;0.00;;;;;5.74;68.39;99429.06;5086055;27;45385;-81
2021/12/08 08:11:55;;;;;;;;;0.00;0.00;;;;;5.66;68.71;99418.66;5098327;27;45457;-80
2021/12/08 08:14:22;;;;;;;;;0.00;0.00;;;;;5.29;68.55;99370.19;5092434;27;45541;-80
2021/12/08 08:16:51;;;;;;;;;0.00;0.00;;;;;5.52;68.54;99392.75;5088739;27;47343;-82
2021/12/08 08:19:18;;;;;;;;;0.00;0.00;;;;;5.75;68.68;99417.88;5098928;27;45420;-80
2021/12/08 08:21:49;;;;;;;;;0.00;0.00;;;;;5.67;68.27;99421.25;5087860;27;45355;-79
2021/12/08 08:24:17;;;;;;;;;0.00;0.00;;;;;5.61;68.36;99407.44;5077387;28;45425;-79
2021/12/08 08:26:45;;;;;;;;;0.00;0.00;;;;;5.54;68.49;99394.50;5094302;27;46203;-83
2021/12/08 08:29:10;;;;;;;;;0.00;0.00;;;;;5.53;68.61;99400.50;5083874;27;45333;-82
2021/12/08 08:31:42;;;;;;;;;0.00;0.00;;;;;5.79;68.65;99433.41;5081434;27;45264;-81
2021/12/08 08:34:09;;;;;;;;;0.00;0.00;;;;;5.79;68.18;99437.72;5085384;27;45405;-80
2021/12/08 08:36:40;;;;;;;;;0.00;0.00;;;;;5.89;68.06;99439.50;5089503;27;45338;-82
2021/12/08 08:39:28;;;;;;;;;0.00;0.00;;;;;5.82;67.85;99420.50;5101992;27;45382;-81
2021/12/08 08:42:01;;;;;;;;;0.00;0.00;;;;;6.09;67.89;99469.78;5068367;27;45382;-78
2021/12/08 08:44:33;;;;;;;;;0.00;0.00;;;;;6.08;68.12;99453.44;5075692;27;45400;-79
2021/12/08 08:47:05;;;;;;;;;0.00;0.00;;;;;6.22;67.95;99460.44;5089287;27;48650;-78
2021/12/08 08:49:33;;;;;;;;;0.00;0.00;;;;;6.02;67.78;99432.69;5094308;27;45325;-78
2021/12/08 08:52:18;;;;;;;;;0.00;0.00;;;;;6.12;67.51;99453.47;5083746;27;45476;-79
2021/12/08 08:54:47;;;;;;;;;1.00;0.00;;;;;6.11;67.51;99443.97;5079404;27;45398;-79
2021/12/08 08:57:17;;;;;;;;;1.00;0.00;;;;;5.96;67.57;99417.16;5089635;27;45472;-80
2021/12/08 08:59:50;;;;;;;;;0.00;0.00;;;;;6.14;67.14;99428.47;5065962;27;45240;-80
2021/12/08 09:02:20;;;;;;;;;0.00;0.00;;;;;6.37;67.19;99464.78;5085293;27;45388;-79
2021/12/08 09:04:50;;;;;;;;;0.00;0.00;;;;;6.10;67.30;99411.25;5091023;27;45662;-80
2021/12/08 09:07:31;;;;;;;;;0.00;0.00;;;;;6.41;67.05;99432.06;5097373;27;47265;-78
2021/12/08 09:10:00;;;;;;;;;0.00;0.00;;;;;6.62;66.78;99459.75;5086876;27;45344;-80
2021/12/08 09:12:50;;;;;;;;;0.00;0.00;;;;;6.46;65.76;99446.75;5090080;27;45354;-79
2021/12/08 09:15:22;;;;;;;;;0.00;0.00;;;;;6.61;65.98;99480.44;5098407;27;45413;-80
2021/12/08 09:17:57;;;;;;;;;0.25;0.25;;;;;6.68;66.64;99485.63;5084638;27;48335;-79
2021/12/08 09:20:34;;;;;;;;;0.00;0.00;;;;;6.69;65.86;99487.38;5088339;27;45852;-79
2021/12/08 09:23:27;;;;;;;;;0.00;0.00;;;;;6.74;65.97;99487.38;5073078;27;45473;-80
2021/12/08 09:25:58;;;;;;;;;0.00;0.00;;;;;6.68;65.75;99462.34;5099155;27;45576;-79
2021/12/08 09:28:29;;;;;;;;;0.00;0.00;;;;;6.90;65.95;99492.63;5088917;27;45547;-79
2021/12/08 09:31:23;;;;;;;;;0.00;0.00;;;;;6.97;65.42;99495.25;5084299;27;45465;-79
2021/12/08 09:34:15;;;;;;;;;0.00;0.00;;;;;7.01;65.04;99497.84;5085283;27;45377;-78
2021/12/08 09:36:46;;;;;;;;;0.00;0.00;;;;;6.92;64.87;99484.00;5081656;28;45352;-81
2021/12/08 09:39:15;;;;;;;;;0.00;0.00;;;;;7.03;64.39;99493.53;5096747;27;46171;-81
2021/12/08 09:41:47;;;;;;;;;0.00;0.00;;;;;6.88;65.23;99483.97;5078406;27;45291;-81
2021/12/08 09:44:17;;;;;;;;;0.00;0.00;;;;;6.97;65.32;99521.13;5089738;27;45472;-81
2021/12/08 09:46:46;;;;;;;;;0.00;0.00;;;;;6.79;65.44;99489.97;5089499;27;45529;-80
2021/12/08 09:49:15;;;;;;;;;0.00;0.00;;;;;6.76;65.04;99479.63;5097671;27;48160;-80
2021/12/08 09:51:42;;;;;;;;;1.00;0.00;;;;;6.78;65.28;99473.63;5068917;27;45387;-80
2021/12/08 09:54:08;;;;;;;;;0.00;0.00;;;;;6.90;65.24;99511.59;5086391;27;45643;-84
2021/12/08 09:56:40;;;;;;;;;0.00;0.00;;;;;6.78;64.91;99488.25;5090398;27;45469;-81
2021/12/08 09:59:07;;;;;;;;;0.00;0.00;;;;;6.83;64.56;99492.59;5081922;27;46436;-82
2021/12/08 10:01:38;;;;;;;;;0.00;0.00;;;;;6.96;64.63;99503.00;5097532;27;45643;-82
2021/12/08 10:04:03;;;;;;;;;0.00;0.00;;;;;6.95;64.56;99484.00;5088133;27;45280;-81
2021/12/08 10:06:29;;;;;;;;;0.00;0.00;;;;;7.21;64.72;99497.91;5094801;27;45282;-82
2021/12/08 10:08:57;;;;;;;;;0.00;0.00;;;;;7.20;64.49;99485.81;5091192;27;45234;-83
2021/12/08 10:11:25;;;;;;;;;0.00;0.00;;;;;7.33;64.39;99485.00;5079730;27;45715;-82
2021/12/08 10:13:50;;;;;;;;;0.00;0.00;;;;;7.28;64.09;99457.34;5097088;27;45380;-83
2021/12/08 10:16:16;;;;;;;;;0.00;0.00;;;;;7.56;63.69;99483.25;5090157;27;45438;-84
2021/12/08 10:18:43;;;;;;;;;0.00;0.00;;;;;7.54;63.59;99467.75;5089482;27;46453;-80
2021/12/08 10:21:10;;;;;;;;;0.00;0.00;;;;;7.76;63.92;99480.69;5096802;27;45254;-81
2021/12/08 10:23:38;;;;;;;;;0.00;0.00;;;;;7.88;63.31;99473.78;5083940;27;45319;-82
2021/12/08 10:26:10;;;;;;;;;0.00;0.00;;;;;7.88;62.99;99468.59;5094531;27;45491;-83
2021/12/08 10:28:46;;;;;;;;;0.00;0.00;;;;;7.94;63.14;99478.97;5092185;27;48054;-81
2021/12/08 10:31:19;;;;;;;;;0.75;0.00;;;;;7.94;62.67;99469.47;5084620;27;45401;-81
2021/12/08 10:39:20;;;;;;;;;0.00;0.00;;;;;7.92;62.62;99480.69;5086920;27;45422;-81
2021/12/08 10:41:53;;;;;;;;;0.00;0.00;;;;;7.86;62.81;99463.41;5050549;27;45271;-83
2021/12/08 10:44:47;;;;;;;;;0.00;0.00;;;;;7.86;62.33;99448.75;5092675;27;45435;-84
2021/12/08 10:47:18;;;;;;;;;0.00;0.00;;;;;8.07;61.66;99474.63;5089040;27;45434;-82
2021/12/08 10:55:06;;;;;;;;;0.00;0.00;;;;;7.82;60.96;99439.25;5096237;27;45317;-82
2021/12/08 10:57:37;;;;;;;;;0.00;0.00;;;;;7.91;61.45;99466.00;5083867;27;45389;-81
2021/12/08 11:00:08;;;;;;;;;0.00;0.00;;;;;7.85;60.85;99466.88;5093823;27;45427;-82
2021/12/08 11:02:46;;;;;;;;;0.00;0.00;;;;;7.82;60.77;99477.25;5092124;27;45358;-81
2021/12/08 11:05:29;;;;;;;;;0.00;0.00;;;;;7.64;60.86;99481.56;5083904;27;45367;-82
2021/12/08 11:08:06;;;;;;;;;0.00;0.00;;;;;7.67;61.48;99475.50;5072284;27;45454;-82
2021/12/08 11:10:34;;;;;;;;;0.00;0.00;;;;;7.71;61.32;99469.47;5089347;27;46644;-82
2021/12/08 11:13:00;;;;;;;;;0.00;0.00;;;;;7.76;61.94;99464.28;5095310;27;45294;-83
2021/12/08 11:15:28;;;;;;;;;0.00;0.00;;;;;7.95;60.76;99473.78;5085206;27;45375;-83
2021/12/08 11:18:09;;;;;;;;;0.00;0.00;;;;;7.99;60.87;99478.09;5094539;27;45358;-82
2021/12/08 11:20:42;;;;;;;;;0.00;0.00;;;;;7.82;61.13;99448.75;5081400;27;45382;-82
2021/12/08 11:23:14;;;;;;;;;0.00;0.00;;;;;7.83;60.80;99443.56;5096023;27;45826;-82
2021/12/08 11:25:45;;;;;;;;;0.00;0.00;;;;;8.15;60.38;99470.28;5068643;27;45453;-83
2021/12/08 11:28:37;;;;;;;;;0.00;0.00;;;;;8.28;60.26;99476.31;5092214;27;45430;-82
2021/12/08 11:31:10;;;;;;;;;0.00;0.00;;;;;8.13;60.44;99451.28;5090286;27;47188;-82
2021/12/08 11:33:41;;;;;;;;;0.00;0.00;;;;;8.10;60.38;99443.53;5097180;27;45422;-81
2021/12/08 11:36:10;;;;;;;;;0.00;0.00;;;;;8.32;60.16;99459.88;5082146;28;45390;-83
2021/12/08 11:38:36;;;;;;;;;1.50;0.00;;;;;8.15;60.03;99453.88;5093241;27;45504;-82
2021/12/08 11:41:07;;;;;;;;;0.00;0.00;;;;;8.31;60.28;99478.03;5087517;27;45497;-82
2021/12/08 11:43:33;;;;;;;;;0.00;0.00;;;;;8.03;59.46;99429.72;5099505;27;45518;-82
2021/12/08 11:46:16;;;;;;;;;0.00;0.00;;;;;8.21;59.85;99461.66;5089728;27;45636;-81
2021/12/08 11:48:57;;;;;;;;;0.00;0.00;;;;;8.30;59.88;99473.72;5087011;27;45681;-82
2021/12/08 11:51:22;;;;;;;;;0.00;0.00;;;;;8.13;59.88;99453.88;5096832;27;45434;-82
2021/12/08 11:53:48;;;;;;;;;0.00;0.00;;;;;8.11;59.91;99448.69;5082564;27;45403;-82
2021/12/08 11:56:31;;;;;;;;;0.00;0.00;;;;;8.18;60.17;99456.47;5092266;27;45284;-82
2021/12/08 11:58:57;;;;;;;;;0.00;0.00;;;;;8.28;59.36;99459.91;5090644;27;45382;-82
2021/12/08 12:01:23;;;;;;;;;0.00;0.00;;;;;8.34;59.58;99481.50;5102457;27;45416;-83
2021/12/08 12:03:48;;;;;;;;;0.00;0.00;;;;;8.34;60.15;99476.31;5098826;27;45540;-82
2021/12/08 12:06:14;;;;;;;;;0.00;0.00;;;;;8.16;59.47;99445.22;5091267;27;45347;-82
2021/12/08 12:08:39;;;;;;;;;0.00;0.00;;;;;8.47;58.86;99486.66;5104161;27;45342;-82
2021/12/08 12:11:05;;;;;;;;;0.00;0.00;;;;;8.31;58.86;99449.53;5089289;27;46445;-82
2021/12/08 12:13:30;;;;;;;;;0.00;0.00;;;;;8.32;59.46;99459.00;5099659;27;45436;-82
2021/12/08 12:15:57;;;;;;;;;0.00;0.00;;;;;8.56;59.08;99494.44;5089171;27;45184;-81
2021/12/08 12:18:23;;;;;;;;;0.00;0.00;;;;;8.28;59.40;99462.50;5095093;27;45902;-82
2021/12/08 12:20:56;;;;;;;;;0.00;0.00;;;;;8.37;59.28;99496.19;5096056;27;46148;-82
2021/12/08 12:23:45;;;;;;;;;0.00;0.00;;;;;8.41;59.09;99504.81;5087794;27;45358;-82
2021/12/08 12:26:22;;;;;;;;;0.00;0.00;;;;;8.33;59.36;99487.53;5096868;27;45453;-82
2021/12/08 12:28:56;;;;;;;;;0.00;0.00;;;;;8.42;59.07;99511.75;5099720;27;45667;-81
2021/12/08 12:31:44;;;;;;;;;0.00;0.00;;;;;8.46;59.02;99513.47;5087001;27;46132;-82
2021/12/08 12:34:37;;;;;;;;;0.00;0.00;;;;;8.50;59.27;99515.16;5062858;28;45399;-82
2021/12/08 12:37:05;;;;;;;;;1.00;0.00;;;;;8.51;59.47;99516.88;5091516;27;45484;-84
2021/12/08 12:39:31;;;;;;;;;0.00;0.00;;;;;8.57;59.24;99522.09;5085598;27;45364;-81
2021/12/08 12:42:00;;;;;;;;;0.00;0.00;;;;;8.64;59.00;99522.97;5103585;27;46525;-80
2021/12/08 12:44:30;;;;;;;;;0.00;0.00;;;;;8.59;59.19;99504.81;5094509;27;45258;-82
2021/12/08 12:47:28;;;;;;;;;0.50;0.00;;;;;8.86;59.08;99533.25;5088419;27;45743;-85
2021/12/08 12:49:59;;;;;;;;;0.00;0.00;;;;;8.92;58.51;99533.25;5072306;27;45485;-82